Time;durP1;ratioP1;P1;durP2;ratioP2;P2;SDS_P1;SDS_P2;PMS_P1;PMS_P2;Temp;Humidity;BMP_temperature;BMP_pressure;BME280_temperature;BME280_humidity;BME280_pressure;Samples;Min_cycle;Max_cycle;Signal;HPM_P1;HPM_P2
2022/12/11 00:01:35;;;;;;;31.70;18.13;;;-2.10;1.00;;;;;;5072926;28;20271;-77
2022/12/11 00:04:05;;;;;;;33.00;18.67;;;-2.00;1.00;;;;;;5058111;28;20513;-77
2022/12/11 00:06:35;;;;;;;30.35;16.95;;;-1.90;1.00;;;;;;5060609;28;20721;-87
2022/12/11 00:09:05;;;;;;;35.13;18.92;;;-1.90;1.00;;;;;;5070884;28;20187;-87
2022/12/11 00:11:41;;;;;;;33.78;17.98;;;-1.90;1.00;;;;;;5072973;28;20260;-87
2022/12/11 00:17:28;;;;;;;33.00;18.70;;;-1.60;1.00;;;;;;5073771;28;20206;-87
2022/12/11 00:23:23;;;;;;;34.17;19.65;;;-1.60;1.00;;;;;;5071300;28;20560;-87
2022/12/11 00:32:32;;;;;;;45.38;24.58;;;-1.40;1.00;;;;;;5066991;28;20719;-86
2022/12/11 00:35:05;;;;;;;38.63;19.80;;;-1.40;1.00;;;;;;5068476;28;20175;-87
2022/12/11 00:37:58;;;;;;;31.27;16.58;;;-1.40;1.00;;;;;;5071929;28;20278;-84
2022/12/11 00:40:29;;;;;;;31.60;17.20;;;-1.40;1.00;;;;;;5072269;28;20230;-87
2022/12/11 00:42:59;;;;;;;28.50;16.33;;;-1.30;1.00;;;;;;5072188;28;20179;-87
2022/12/11 00:48:48;;;;;;;27.83;15.70;;;-1.10;1.00;;;;;;5059598;28;20311;-87
2022/12/11 00:51:40;;;;;;;30.10;16.17;;;-1.10;1.00;;;;;;5072770;28;20591;-86
2022/12/11 00:54:17;;;;;;;31.27;16.40;;;-1.10;1.00;;;;;;5064282;28;20171;-87
2022/12/11 00:56:47;;;;;;;32.78;17.55;;;-1.10;1.00;;;;;;5072596;28;20187;-87
2022/12/11 00:59:17;;;;;;;30.15;16.10;;;-1.10;1.00;;;;;;5054467;28;20184;-87
2022/12/11 01:02:04;;;;;;;29.58;17.00;;;-1.10;1.00;;;;;;5071579;28;20185;-87
2022/12/11 01:04:36;;;;;;;31.08;17.33;;;-1.00;1.00;;;;;;5068956;28;20201;-87
2022/12/11 01:07:02;;;;;;;30.17;17.38;;;-0.90;1.00;;;;;;5063241;28;20180;-77
2022/12/11 01:12:13;;;;;;;30.75;17.90;;;-0.90;1.00;;;;;;5066736;28;20854;-77
2022/12/11 01:14:47;;;;;;;32.17;18.00;;;-0.90;1.00;;;;;;5076204;28;20183;-77
2022/12/11 01:17:12;;;;;;;29.33;17.40;;;-0.90;1.00;;;;;;5076190;28;20209;-77
2022/12/11 01:19:41;;;;;;;35.10;18.27;;;-0.90;1.00;;;;;;5076216;28;20694;-77
2022/12/11 01:22:34;;;;;;;31.30;17.52;;;-0.80;1.00;;;;;;5076894;28;20167;-87
2022/12/11 01:25:28;;;;;;;30.92;17.48;;;-0.80;1.00;;;;;;5069658;28;20179;-87
2022/12/11 01:27:59;;;;;;;35.42;17.98;;;-0.80;1.00;;;;;;5065056;28;20190;-87
2022/12/11 01:34:11;;;;;;;31.20;17.77;;;-0.80;1.00;;;;;;5075157;28;20197;-87
2022/12/11 01:36:37;;;;;;;36.30;18.88;;;-0.80;1.00;;;;;;5076040;28;20176;-79
2022/12/11 01:39:11;;;;;;;33.00;17.80;;;-0.80;1.00;;;;;;5073168;28;20178;-77
2022/12/11 01:41:47;;;;;;;30.35;16.50;;;-0.80;1.00;;;;;;5076156;28;20167;-78
2022/12/11 01:44:15;;;;;;;32.67;18.15;;;-0.70;1.00;;;;;;5075714;28;20638;-78
2022/12/11 01:46:47;;;;;;;39.35;18.48;;;-0.70;1.00;;;;;;5075932;28;20189;-77
2022/12/11 01:49:29;;;;;;;35.42;18.10;;;-0.70;1.00;;;;;;5074191;28;20541;-77
2022/12/11 01:52:06;;;;;;;34.33;18.92;;;-0.70;1.00;;;;;;5076084;28;20183;-78
2022/12/11 01:54:35;;;;;;;38.08;19.17;;;-0.70;1.00;;;;;;5075434;28;20166;-78
2022/12/11 01:57:04;;;;;;;35.17;17.52;;;-0.70;1.00;;;;;;5075016;28;20175;-77
2022/12/11 01:59:47;;;;;;;34.20;18.55;;;-0.70;1.00;;;;;;5075290;28;20240;-77
2022/12/11 02:02:28;;;;;;;36.03;18.88;;;-0.80;1.00;;;;;;5075439;28;20167;-77
2022/12/11 02:05:02;;;;;;;33.45;18.50;;;-0.70;1.00;;;;;;5074781;28;20700;-77
2022/12/11 02:07:36;;;;;;;37.75;18.85;;;-0.60;1.00;;;;;;5072212;28;20182;-78
2022/12/11 02:10:05;;;;;;;36.38;19.08;;;-0.60;1.00;;;;;;5074100;28;20715;-77
2022/12/11 02:13:06;;;;;;;33.42;18.42;;;-0.60;1.00;;;;;;5075387;28;20626;-77
2022/12/11 02:16:05;;;;;;;34.72;19.10;;;-0.50;1.00;;;;;;5087596;28;20193;-77
2022/12/11 02:18:57;;;;;;;33.80;19.02;;;-0.40;1.00;;;;;;5089874;28;20545;-78
2022/12/11 02:21:32;;;;;;;32.97;17.77;;;-0.30;1.00;;;;;;5082304;28;20190;-78
2022/12/11 02:24:25;;;;;;;36.03;18.25;;;-0.20;1.00;;;;;;5083755;28;20178;-87
2022/12/11 02:27:34;;;;;;;30.20;18.15;;;-0.20;1.00;;;;;;5077037;28;20197;-87
2022/12/11 02:30:52;;;;;;;33.35;18.55;;;-0.10;1.00;;;;;;5094213;28;20269;-87
2022/12/11 02:33:36;;;;;;;35.90;19.08;;;-0.10;1.00;;;;;;5091424;28;20197;-87
2022/12/11 02:36:37;;;;;;;33.25;18.08;;;-0.20;1.00;;;;;;5076826;28;20182;-87
2022/12/11 02:42:47;;;;;;;33.95;19.10;;;0.00;1.00;;;;;;5093761;28;20198;-87
2022/12/11 02:48:36;;;;;;;33.53;17.42;;;0.00;1.00;;;;;;5080012;28;20715;-87
2022/12/11 02:54:35;;;;;;;37.80;18.80;;;0.10;1.00;;;;;;5070431;28;20187;-78
2022/12/11 02:57:07;;;;;;;32.95;18.17;;;0.20;1.00;;;;;;5068459;28;20174;-77
2022/12/11 02:59:39;;;;;;;33.55;18.23;;;0.20;1.00;;;;;;5074311;28;20179;-77
2022/12/11 03:02:05;;;;;;;32.05;18.27;;;0.20;1.00;;;;;;5058428;28;20843;-77
2022/12/11 03:04:35;;;;;;;39.55;19.00;;;0.20;1.00;;;;;;5063591;28;20202;-77
2022/12/11 03:07:31;;;;;;;34.28;19.38;;;0.30;1.00;;;;;;5065894;28;20207;-78
2022/12/11 03:10:17;;;;;;;33.28;17.65;;;0.20;1.00;;;;;;5072780;28;20211;-87
2022/12/11 03:13:00;;;;;;;37.55;18.90;;;0.20;1.00;;;;;;5070290;28;20175;-87
2022/12/11 03:15:46;;;;;;;39.72;18.92;;;0.30;1.00;;;;;;5073707;28;20179;-86
2022/12/11 03:18:49;;;;;;;33.80;18.20;;;0.20;1.00;;;;;;5075009;28;20665;-87
2022/12/11 03:21:54;;;;;;;32.40;16.90;;;0.30;1.00;;;;;;5061472;28;20183;-87
2022/12/11 03:24:29;;;;;;;35.10;19.10;;;0.30;1.00;;;;;;5074696;28;20630;-87
2022/12/11 03:27:25;;;;;;;33.30;18.75;;;0.30;1.00;;;;;;5061718;28;20193;-87
2022/12/11 03:30:34;;;;;;;34.05;19.02;;;0.40;1.00;;;;;;5064812;28;20287;-87
2022/12/11 03:33:19;;;;;;;34.60;18.90;;;0.40;1.00;;;;;;5058633;28;20167;-87
2022/12/11 03:39:28;;;;;;;34.25;19.08;;;0.40;1.00;;;;;;5068258;28;20244;-78
2022/12/11 03:42:01;;;;;;;34.00;19.10;;;0.40;1.00;;;;;;5063727;28;20177;-78
2022/12/11 03:44:31;;;;;;;32.65;18.42;;;0.30;1.00;;;;;;5073498;28;20183;-77
2022/12/11 03:47:02;;;;;;;37.78;19.52;;;0.40;1.00;;;;;;5072385;28;20654;-77
2022/12/11 03:49:32;;;;;;;35.28;19.98;;;0.40;1.00;;;;;;5071805;28;20221;-77
2022/12/11 03:52:07;;;;;;;36.85;19.38;;;0.40;1.00;;;;;;5071731;28;20266;-77
2022/12/11 03:55:16;;;;;;;32.38;19.35;;;0.40;1.00;;;;;;5060741;28;20183;-87
2022/12/11 03:57:59;;;;;;;33.40;18.60;;;0.40;1.00;;;;;;5061115;28;20207;-87
2022/12/11 04:00:29;;;;;;;35.08;19.05;;;0.40;1.00;;;;;;5072711;28;20229;-87
2022/12/11 04:03:16;;;;;;;36.22;19.77;;;0.40;1.00;;;;;;5072471;28;20308;-87
2022/12/11 04:06:10;;;;;;;35.83;19.50;;;0.40;1.00;;;;;;5072440;28;20202;-87
2022/12/11 04:08:36;;;;;;;35.20;18.75;;;0.40;1.00;;;;;;5065647;28;20174;-77
2022/12/11 04:24:13;;;;;;;35.75;19.08;;;0.50;1.00;;;;;;5067682;28;20220;-78
2022/12/11 04:25:33;;;;;;;37.05;19.65;;;0.50;1.00;;;;;;5070413;28;20198;-77
2022/12/11 04:28:17;;;;;;;34.77;20.60;;;0.40;1.00;;;;;;5072150;28;20182;-78
2022/12/11 04:34:04;;;;;;;36.42;20.38;;;0.40;1.00;;;;;;5060152;28;20189;-77
2022/12/11 04:36:41;;;;;;;32.80;18.93;;;0.40;1.00;;;;;;5070828;28;20171;-77
2022/12/11 04:39:07;;;;;;;36.55;20.02;;;0.40;1.00;;;;;;5057075;28;20190;-77
2022/12/11 04:41:36;;;;;;;36.27;20.03;;;0.50;1.00;;;;;;5058518;28;20187;-77
2022/12/11 04:44:02;;;;;;;36.10;19.92;;;0.50;1.00;;;;;;5072436;28;20175;-77
2022/12/11 04:46:27;;;;;;;37.28;20.13;;;0.40;1.00;;;;;;5067839;28;20178;-77
2022/12/11 04:48:59;;;;;;;38.67;19.50;;;0.50;1.00;;;;;;5067474;28;20874;-77
2022/12/11 04:51:35;;;;;;;35.00;19.83;;;0.50;1.00;;;;;;5068843;28;20194;-77
2022/12/11 04:54:34;;;;;;;35.22;19.88;;;0.60;1.00;;;;;;5077041;28;20627;-77
2022/12/11 04:57:00;;;;;;;39.08;19.73;;;0.60;1.00;;;;;;5066776;28;20512;-78
2022/12/11 04:59:41;;;;;;;35.10;19.60;;;0.60;1.00;;;;;;5070294;28;20182;-78
2022/12/11 05:02:07;;;;;;;39.33;20.63;;;0.60;1.00;;;;;;5076393;28;20171;-77
2022/12/11 05:04:47;;;;;;;36.23;20.20;;;0.60;1.00;;;;;;5070815;28;20221;-77
2022/12/11 05:07:41;;;;;;;38.55;19.95;;;0.60;1.00;;;;;;5076200;28;20583;-77
2022/12/11 05:10:40;;;;;;;37.15;20.45;;;0.50;1.00;;;;;;5065882;28;20203;-88
2022/12/11 05:13:11;;;;;;;39.95;21.27;;;0.50;1.00;;;;;;5069603;28;20179;-87
2022/12/11 05:15:41;;;;;;;35.90;19.90;;;0.60;1.00;;;;;;5062165;28;20578;-87
2022/12/11 05:18:58;;;;;;;35.00;19.55;;;0.60;1.00;;;;;;5072350;28;20707;-87
2022/12/11 05:21:52;;;;;;;37.90;19.65;;;0.60;1.00;;;;;;5072238;28;20281;-87
2022/12/11 05:24:23;;;;;;;34.40;19.83;;;0.60;1.00;;;;;;5068577;28;20175;-87
2022/12/11 05:27:11;;;;;;;34.47;19.40;;;0.60;1.00;;;;;;5069596;28;20697;-87
2022/12/11 05:29:53;;;;;;;34.10;19.65;;;0.50;1.00;;;;;;5071490;28;20320;-88
2022/12/11 05:32:35;;;;;;;38.50;20.75;;;0.50;1.00;;;;;;5072095;28;20223;-87
2022/12/11 05:35:05;;;;;;;37.65;20.35;;;0.50;1.00;;;;;;5063012;28;20179;-88
2022/12/11 05:37:52;;;;;;;39.47;21.75;;;0.50;1.00;;;;;;5068096;28;20171;-88
2022/12/11 05:40:18;;;;;;;39.58;20.30;;;0.50;1.00;;;;;;5064902;28;20183;-78
2022/12/11 05:42:53;;;;;;;39.93;21.33;;;0.50;1.00;;;;;;5072056;28;20187;-77
2022/12/11 05:45:19;;;;;;;39.85;22.50;;;0.50;1.00;;;;;;5074817;28;20170;-77
2022/12/11 05:47:47;;;;;;;38.33;20.20;;;0.60;1.00;;;;;;5075155;28;20236;-77
2022/12/11 05:50:13;;;;;;;46.40;22.00;;;0.60;1.00;;;;;;5075688;28;20183;-78
2022/12/11 05:52:39;;;;;;;37.37;21.87;;;0.50;1.00;;;;;;5075672;28;20236;-77
2022/12/11 05:55:17;;;;;;;41.70;21.27;;;0.50;1.00;;;;;;5076299;28;20888;-87
2022/12/11 05:57:59;;;;;;;41.03;21.90;;;0.60;1.00;;;;;;5068577;28;20205;-88
2022/12/11 06:00:29;;;;;;;40.78;21.27;;;0.50;1.00;;;;;;5069225;28;20182;-87
2022/12/11 06:03:05;;;;;;;37.03;20.33;;;0.40;1.00;;;;;;5075429;28;20199;-87
2022/12/11 06:08:54;;;;;;;42.17;21.30;;;0.40;1.00;;;;;;5076453;28;20221;-87
2022/12/11 06:11:46;;;;;;;34.95;20.23;;;0.50;1.00;;;;;;5076031;28;20210;-87
2022/12/11 06:14:23;;;;;;;40.38;21.10;;;0.50;1.00;;;;;;5074972;28;20175;-88
2022/12/11 06:16:53;;;;;;;38.28;21.00;;;0.50;1.00;;;;;;5074569;28;20558;-87
2022/12/11 06:19:35;;;;;;;38.67;19.75;;;0.50;1.00;;;;;;5074692;28;20212;-87
2022/12/11 06:25:23;;;;;;;39.38;19.95;;;0.50;1.00;;;;;;5070889;28;20213;-77
2022/12/11 06:27:59;;;;;;;41.23;22.00;;;0.50;1.00;;;;;;5075035;28;20163;-78
2022/12/11 06:30:29;;;;;;;43.97;21.65;;;0.50;1.00;;;;;;5064776;28;20456;-78
2022/12/11 06:33:05;;;;;;;41.83;21.73;;;0.60;1.00;;;;;;5070785;28;20183;-77
2022/12/11 06:35:35;;;;;;;44.67;21.83;;;0.60;1.00;;;;;;5074512;28;20244;-77
2022/12/11 06:38:01;;;;;;;43.75;22.58;;;0.70;1.00;;;;;;5074609;28;20175;-77
2022/12/11 06:40:29;;;;;;;43.30;21.03;;;0.70;1.00;;;;;;5073923;28;20240;-85
2022/12/11 06:43:05;;;;;;;37.90;21.00;;;0.70;1.00;;;;;;5071012;28;20175;-87
2022/12/11 06:48:52;;;;;;;40.03;20.70;;;0.80;1.00;;;;;;5068277;28;20182;-87
2022/12/11 06:51:30;;;;;;;37.23;20.67;;;0.80;1.00;;;;;;5071945;28;20554;-84
2022/12/11 06:53:56;;;;;;;36.35;19.98;;;0.90;1.00;;;;;;5074288;28;20523;-86
2022/12/11 06:56:23;;;;;;;35.38;19.25;;;0.90;1.00;;;;;;5069872;28;20179;-81
2022/12/11 06:58:54;;;;;;;38.15;21.05;;;0.90;1.00;;;;;;5063579;28;20172;-79
2022/12/11 07:01:27;;;;;;;43.33;22.05;;;0.90;1.00;;;;;;5068815;28;20185;-80
2022/12/11 07:04:11;;;;;;;39.30;19.77;;;0.80;1.00;;;;;;5065974;28;20539;-79
2022/12/11 07:07:05;;;;;;;40.10;21.90;;;0.80;1.00;;;;;;5060542;28;20194;-80
2022/12/11 07:09:37;;;;;;;38.13;20.83;;;0.80;1.00;;;;;;5070013;28;20211;-80
2022/12/11 07:12:11;;;;;;;37.00;19.63;;;0.80;1.00;;;;;;5067364;28;20199;-79
2022/12/11 07:15:05;;;;;;;39.95;19.45;;;0.90;1.00;;;;;;5062515;28;20182;-79
2022/12/11 07:17:35;;;;;;;40.20;20.58;;;0.90;1.00;;;;;;5072646;28;20171;-74
2022/12/11 07:20:00;;;;;;;38.10;20.60;;;0.90;1.00;;;;;;5073277;28;20611;-74
2022/12/11 07:22:29;;;;;;;40.30;21.30;;;1.00;1.00;;;;;;5072290;28;20213;-74
2022/12/11 07:25:05;;;;;;;38.60;21.10;;;1.00;1.00;;;;;;5085151;28;20586;-74
2022/12/11 07:27:35;;;;;;;39.13;21.52;;;1.00;1.00;;;;;;5067694;28;20240;-74
2022/12/11 07:30:01;;;;;;;37.28;21.17;;;0.90;1.00;;;;;;5065767;28;20231;-74
2022/12/11 07:32:27;;;;;;;40.50;21.50;;;0.90;1.00;;;;;;5072924;28;20203;-74
2022/12/11 07:34:53;;;;;;;41.88;21.90;;;0.80;1.00;;;;;;5073296;28;20169;-74
2022/12/11 07:37:29;;;;;;;45.33;23.23;;;0.90;1.00;;;;;;5071010;28;20175;-74
2022/12/11 07:39:59;;;;;;;42.22;22.67;;;0.90;1.00;;;;;;5061441;28;20213;-74
2022/12/11 07:42:29;;;;;;;42.40;22.83;;;0.90;1.00;;;;;;5068197;28;20643;-75
2022/12/11 07:45:11;;;;;;;40.85;23.02;;;1.00;1.00;;;;;;5066248;28;20241;-75
2022/12/11 07:47:37;;;;;;;46.65;24.42;;;1.00;1.00;;;;;;5072279;28;20179;-74
2022/12/11 07:50:06;;;;;;;45.47;23.50;;;1.10;1.00;;;;;;5071335;28;20229;-74
2022/12/11 07:52:32;;;;;;;39.13;21.75;;;1.10;1.00;;;;;;5072587;28;20170;-74
2022/12/11 07:54:58;;;;;;;39.97;22.38;;;1.10;1.00;;;;;;5071351;28;20179;-74
2022/12/11 07:57:24;;;;;;;42.23;22.50;;;1.20;1.00;;;;;;5064814;28;20183;-72
2022/12/11 07:59:50;;;;;;;42.90;22.88;;;1.20;1.00;;;;;;5071333;28;20179;-71
2022/12/11 08:02:17;;;;;;;40.87;22.13;;;1.20;1.00;;;;;;5066871;28;20170;-72
2022/12/11 08:04:43;;;;;;;43.08;22.30;;;1.20;1.00;;;;;;5067150;28;20179;-72
2022/12/11 08:07:08;;;;;;;39.83;21.67;;;1.10;1.00;;;;;;5068703;28;20187;-72
2022/12/11 08:09:34;;;;;;;43.20;22.60;;;1.20;1.00;;;;;;5063145;28;20175;-71
2022/12/11 08:12:00;;;;;;;42.77;22.50;;;1.20;1.00;;;;;;5069477;28;20195;-73
2022/12/11 08:14:26;;;;;;;43.60;22.90;;;1.20;1.00;;;;;;5071623;28;20179;-74
2022/12/11 08:16:51;;;;;;;45.17;23.40;;;1.20;1.00;;;;;;5070892;28;20176;-73
2022/12/11 08:19:17;;;;;;;42.60;23.93;;;1.30;1.00;;;;;;5064886;28;20253;-73
2022/12/11 08:21:43;;;;;;;41.60;23.47;;;1.30;1.00;;;;;;5071267;28;20190;-73
2022/12/11 08:24:09;;;;;;;43.30;22.95;;;1.40;1.00;;;;;;5071116;28;20478;-73
2022/12/11 08:26:35;;;;;;;42.03;23.13;;;1.40;1.00;;;;;;5065950;28;20564;-70
2022/12/11 08:29:02;;;;;;;39.08;23.30;;;1.50;1.00;;;;;;5067907;28;20178;-70
2022/12/11 08:31:29;;;;;;;40.30;21.70;;;1.50;1.00;;;;;;5072752;28;20198;-71
2022/12/11 08:33:55;;;;;;;43.05;23.25;;;1.60;1.00;;;;;;5072049;28;20682;-71
2022/12/11 08:36:22;;;;;;;43.15;23.45;;;1.50;1.00;;;;;;5071936;28;20193;-71
2022/12/11 08:38:48;;;;;;;42.28;24.13;;;1.60;1.00;;;;;;5069868;28;20524;-71
2022/12/11 08:41:17;;;;;;;44.85;24.88;;;1.60;1.00;;;;;;5069448;28;20182;-71
2022/12/11 08:43:43;;;;;;;42.95;24.08;;;1.70;1.00;;;;;;5067835;28;20191;-71
2022/12/11 08:46:53;;;;;;;39.33;22.27;;;1.70;1.00;;;;;;5072433;28;20178;-77
2022/12/11 08:49:18;;;;;;;42.75;24.10;;;1.70;1.00;;;;;;5064135;28;20175;-77
2022/12/11 08:51:47;;;;;;;41.90;23.33;;;1.60;1.00;;;;;;5070304;28;20203;-77
2022/12/11 08:54:23;;;;;;;43.38;24.38;;;1.60;1.00;;;;;;5063340;28;20197;-77
2022/12/11 08:56:49;;;;;;;40.20;22.58;;;1.60;1.00;;;;;;5073262;28;20687;-77
2022/12/11 08:59:17;;;;;;;48.83;24.60;;;1.50;1.00;;;;;;5072303;28;20179;-77
2022/12/11 09:01:47;;;;;;;42.28;23.52;;;1.50;1.00;;;;;;5072346;28;20269;-77
2022/12/11 09:04:17;;;;;;;39.83;22.40;;;1.60;1.00;;;;;;5072933;28;20174;-77
2022/12/11 09:06:47;;;;;;;42.40;23.27;;;1.60;1.00;;;;;;5065692;28;20187;-77
2022/12/11 09:09:13;;;;;;;39.30;22.33;;;1.70;1.00;;;;;;5062718;28;20262;-77
2022/12/11 09:11:48;;;;;;;51.22;22.23;;;1.70;1.00;;;;;;5054039;28;20204;-78
2022/12/11 09:14:17;;;;;;;39.60;22.00;;;1.80;1.00;;;;;;5065595;28;20174;-77
2022/12/11 09:16:47;;;;;;;38.80;21.85;;;1.80;1.00;;;;;;5051437;28;20210;-77
2022/12/11 09:19:17;;;;;;;39.08;21.45;;;1.90;1.00;;;;;;5071060;28;20183;-77
2022/12/11 09:21:44;;;;;;;39.13;21.75;;;2.00;1.00;;;;;;5065150;28;20597;-77
2022/12/11 09:24:12;;;;;;;40.38;22.55;;;2.10;1.00;;;;;;5060410;28;20179;-78
2022/12/11 09:26:41;;;;;;;37.85;20.60;;;2.20;1.00;;;;;;5072979;28;20182;-78
2022/12/11 09:29:17;;;;;;;37.08;21.58;;;2.30;1.00;;;;;;5072969;28;20376;-77
2022/12/11 09:31:48;;;;;;;36.88;21.13;;;2.40;1.00;;;;;;5067316;28;20244;-77
2022/12/11 09:34:17;;;;;;;35.58;20.75;;;2.40;1.00;;;;;;5073769;28;20163;-77
2022/12/11 09:36:53;;;;;;;37.08;19.83;;;2.40;1.00;;;;;;5076098;28;20167;-77
2022/12/11 09:39:19;;;;;;;35.95;20.08;;;2.40;1.00;;;;;;5075816;28;20206;-77
2022/12/11 09:41:56;;;;;;;34.87;19.70;;;2.30;1.00;;;;;;5076488;28;20178;-86
2022/12/11 09:44:38;;;;;;;38.20;20.13;;;2.40;1.00;;;;;;5076853;28;20579;-87
2022/12/11 09:47:32;;;;;;;41.30;22.05;;;2.40;1.00;;;;;;5074557;28;20224;-87
2022/12/11 09:50:41;;;;;;;37.20;19.42;;;2.40;1.00;;;;;;5074870;28;20804;-88
2022/12/11 09:53:15;;;;;;;34.38;20.35;;;2.50;1.00;;;;;;5076373;28;20220;-87
2022/12/11 09:56:37;;;;;;;37.47;20.55;;;2.70;1.00;;;;;;5062187;28;20232;-87
2022/12/11 09:59:52;;;;;;;35.85;20.80;;;2.60;1.00;;;;;;5082342;28;20223;-87
2022/12/11 10:02:47;;;;;;;33.92;19.25;;;2.70;1.00;;;;;;5086063;28;20235;-84
2022/12/11 10:05:13;;;;;;;34.58;19.90;;;2.70;1.00;;;;;;5073819;28;20202;-86
2022/12/11 10:07:51;;;;;;;36.00;19.45;;;2.80;1.00;;;;;;5082154;28;20191;-86
2022/12/11 10:10:35;;;;;;;35.78;19.23;;;2.90;1.00;;;;;;5073974;28;20198;-86
2022/12/11 10:13:21;;;;;;;35.75;19.25;;;2.90;1.00;;;;;;5062019;28;20226;-77
2022/12/11 10:16:30;;;;;;;36.58;18.83;;;2.80;1.00;;;;;;5074133;28;20179;-77
2022/12/11 10:19:00;;;;;;;32.22;19.50;;;2.80;1.00;;;;;;4993581;28;20181;-77
2022/12/11 10:21:48;;;;;;;38.17;19.70;;;2.80;1.00;;;;;;4992998;28;20317;-78
2022/12/11 10:24:43;;;;;;;35.83;18.40;;;2.70;1.00;;;;;;4998178;28;20296;-77
2022/12/11 10:27:20;;;;;;;41.05;19.63;;;2.70;1.00;;;;;;4978485;28;20276;-84
2022/12/11 10:30:17;;;;;;;38.40;20.17;;;2.70;1.00;;;;;;4982543;28;20557;-86
2022/12/11 10:36:37;;;;;;;37.55;20.55;;;2.60;1.00;;;;;;4960147;28;20321;-92
2022/12/11 10:39:23;;;;;;;36.90;20.50;;;2.50;1.00;;;;;;4974976;28;20200;-92
2022/12/11 10:42:09;;;;;;;40.80;22.23;;;2.50;1.00;;;;;;4971024;28;20190;-93
2022/12/11 10:45:14;;;;;;;39.88;21.30;;;2.50;1.00;;;;;;4961020;28;20710;-92
2022/12/11 10:47:48;;;;;;;37.60;20.60;;;2.50;1.00;;;;;;4952885;29;20194;-93
2022/12/11 10:50:30;;;;;;;34.83;19.65;;;2.50;1.00;;;;;;4939363;29;20214;-91
2022/12/11 10:53:20;;;;;;;31.15;18.52;;;2.60;1.00;;;;;;4939266;29;20523;-91
2022/12/11 10:55:48;;;;;;;36.30;19.90;;;2.60;1.00;;;;;;4955652;29;20195;-92
2022/12/11 10:58:24;;;;;;;46.65;24.33;;;2.70;1.00;;;;;;4936274;29;20294;-84
2022/12/11 11:01:14;;;;;;;36.08;19.33;;;2.70;1.00;;;;;;4950213;29;20210;-82
2022/12/11 11:04:02;;;;;;;34.10;19.08;;;2.80;1.00;;;;;;4961132;28;20186;-83
2022/12/11 11:06:48;;;;;;;34.58;19.40;;;2.80;1.00;;;;;;4972985;28;20705;-83
2022/12/11 11:09:34;;;;;;;33.65;18.50;;;2.70;1.00;;;;;;4988418;28;20199;-83
2022/12/11 11:12:25;;;;;;;46.50;20.20;;;2.80;1.00;;;;;;5004937;28;20667;-83
2022/12/11 11:15:19;;;;;;;42.72;21.55;;;2.80;1.00;;;;;;5031713;28;20184;-83
2022/12/11 11:17:56;;;;;;;37.42;20.80;;;2.90;1.00;;;;;;5032183;28;20709;-83
2022/12/11 11:20:28;;;;;;;39.20;21.58;;;2.90;1.00;;;;;;5029727;28;20204;-82
2022/12/11 11:23:10;;;;;;;38.47;19.90;;;2.90;1.00;;;;;;5048450;28;20186;-82
2022/12/11 11:25:59;;;;;;;38.70;20.08;;;2.90;1.00;;;;;;5072217;28;20584;-83
2022/12/11 11:28:51;;;;;;;39.08;20.67;;;3.00;1.00;;;;;;5060149;28;20202;-92
2022/12/11 11:31:47;;;;;;;42.33;22.33;;;3.00;1.00;;;;;;5070335;28;20262;-90
2022/12/11 11:34:22;;;;;;;46.22;24.88;;;3.00;1.00;;;;;;5061886;28;20179;-86
2022/12/11 11:37:37;;;;;;;42.78;21.90;;;3.10;1.00;;;;;;5072270;28;20182;-87
2022/12/11 11:40:51;;;;;;;37.53;20.17;;;3.10;1.00;;;;;;5074686;28;20221;-86
2022/12/11 11:43:37;;;;;;;42.50;20.73;;;3.20;1.00;;;;;;5031881;28;20710;-76
2022/12/11 11:46:26;;;;;;;35.97;19.70;;;3.10;1.00;;;;;;5031031;28;20561;-76
2022/12/11 11:49:28;;;;;;;41.83;20.73;;;3.10;1.00;;;;;;5012178;28;20288;-76
2022/12/11 11:52:29;;;;;;;44.88;21.13;;;3.10;1.00;;;;;;5031439;28;20351;-77
2022/12/11 11:55:12;;;;;;;34.65;20.35;;;3.00;1.00;;;;;;5032982;28;20190;-77
2022/12/11 11:58:00;;;;;;;38.85;18.55;;;3.00;1.00;;;;;;5013997;28;20552;-76
2022/12/11 12:00:35;;;;;;;39.08;20.17;;;2.90;1.00;;;;;;5031930;28;20641;-87
2022/12/11 12:06:59;;;;;;;35.60;19.40;;;2.90;1.00;;;;;;5032488;28;20721;-87
2022/12/11 12:13:02;;;;;;;30.70;18.80;;;2.80;1.00;;;;;;5022266;28;20226;-86
2022/12/11 12:15:53;;;;;;;30.10;17.10;;;2.80;1.00;;;;;;5030536;28;20192;-86
2022/12/11 12:18:42;;;;;;;38.58;21.80;;;2.80;1.00;;;;;;5033298;28;20204;-86
2022/12/11 12:28:18;;;;;;;39.78;22.70;;;2.90;1.00;;;;;;5050334;28;20191;-87
2022/12/11 12:37:26;;;;;;;38.85;21.75;;;2.90;1.00;;;;;;5050760;28;20221;-87
2022/12/11 12:43:41;;;;;;;42.03;22.30;;;2.90;1.00;;;;;;5050635;28;20257;-86
2022/12/11 12:46:47;;;;;;;39.92;21.15;;;2.90;1.00;;;;;;5048487;28;20226;-86
2022/12/11 12:49:33;;;;;;;42.45;22.70;;;2.90;1.00;;;;;;5031391;28;20199;-86
2022/12/11 12:52:35;;;;;;;41.97;22.10;;;2.80;1.00;;;;;;5031412;28;20199;-86
2022/12/11 12:55:41;;;;;;;36.35;21.48;;;2.80;1.00;;;;;;5038356;28;20198;-86
2022/12/11 12:58:38;;;;;;;41.78;22.20;;;2.70;1.00;;;;;;5042597;28;20277;-86
2022/12/11 13:01:11;;;;;;;41.15;21.30;;;2.60;1.00;;;;;;5018946;28;20207;-76
2022/12/11 13:04:01;;;;;;;41.70;22.70;;;2.60;1.00;;;;;;5013721;28;20218;-77
2022/12/11 13:06:36;;;;;;;44.63;23.10;;;2.80;1.00;;;;;;5029292;28;20192;-76
2022/12/11 13:09:12;;;;;;;40.80;21.45;;;2.60;1.00;;;;;;5029029;28;20659;-77
2022/12/11 13:11:43;;;;;;;48.17;24.35;;;2.60;1.00;;;;;;5034230;28;20228;-77
2022/12/11 13:18:11;;;;;;;38.53;18.13;;;2.50;1.00;;;;;;5036988;28;20171;-84
2022/12/11 13:20:49;;;;;;;32.47;18.00;;;2.40;1.00;;;;;;5048688;28;20258;-84
2022/12/11 13:23:27;;;;;;;34.13;18.40;;;2.40;1.00;;;;;;5035003;28;20605;-86
2022/12/11 13:26:02;;;;;;;33.28;16.95;;;2.40;1.00;;;;;;5027585;28;20190;-86
2022/12/11 13:28:53;;;;;;;36.97;18.83;;;2.40;1.00;;;;;;5054658;28;20183;-86
2022/12/11 13:31:43;;;;;;;37.40;19.35;;;2.40;1.00;;;;;;5047485;28;20223;-77
2022/12/11 13:34:31;;;;;;;41.22;20.00;;;2.40;1.00;;;;;;5053749;28;20192;-76
2022/12/11 13:37:03;;;;;;;35.33;17.55;;;2.40;1.00;;;;;;5054020;28;20582;-76
2022/12/11 13:39:45;;;;;;;36.85;20.10;;;2.50;1.00;;;;;;5064483;28;20634;-76
2022/12/11 13:42:34;;;;;;;34.22;19.15;;;2.40;1.00;;;;;;5061415;28;20522;-76
2022/12/11 13:45:27;;;;;;;34.53;17.08;;;2.50;1.00;;;;;;5067417;28;20198;-87
2022/12/11 13:48:21;;;;;;;36.08;19.10;;;2.50;1.00;;;;;;5076561;28;20650;-90
2022/12/11 13:54:15;;;;;;;32.55;15.98;;;2.30;1.00;;;;;;5075552;28;20229;-84
2022/12/11 13:57:03;;;;;;;30.75;15.75;;;2.20;1.00;;;;;;5075769;28;20187;-86
2022/12/11 13:59:32;;;;;;;42.85;19.42;;;2.20;1.00;;;;;;5075193;28;20182;-87
2022/12/11 14:02:12;;;;;;;36.50;16.55;;;2.30;1.00;;;;;;5075550;28;20322;-86
2022/12/11 14:05:02;;;;;;;30.90;16.58;;;2.20;1.00;;;;;;5063950;28;20183;-88
2022/12/11 14:08:12;;;;;;;29.52;15.27;;;2.20;1.00;;;;;;5080540;28;20191;-88
2022/12/11 14:10:42;;;;;;;32.67;16.40;;;2.20;1.00;;;;;;5056482;28;20199;-87
2022/12/11 14:13:22;;;;;;;29.50;14.90;;;2.20;1.00;;;;;;5056101;28;20174;-88
2022/12/11 14:15:48;;;;;;;28.15;15.15;;;2.20;1.00;;;;;;5063097;28;20178;-76
2022/12/11 14:18:25;;;;;;;33.67;16.93;;;2.30;1.00;;;;;;5074860;28;20159;-76
2022/12/11 14:20:59;;;;;;;35.60;15.75;;;2.30;1.00;;;;;;5055086;28;20472;-77
2022/12/11 14:24:05;;;;;;;31.38;16.95;;;2.30;1.00;;;;;;5072382;28;20224;-76
2022/12/11 14:26:38;;;;;;;32.72;16.05;;;2.20;1.00;;;;;;5073926;28;20182;-76
2022/12/11 14:29:27;;;;;;;35.97;17.48;;;2.10;1.00;;;;;;5065408;28;20188;-76
2022/12/11 14:31:56;;;;;;;34.80;16.00;;;2.10;1.00;;;;;;5071925;28;20205;-76
2022/12/11 14:34:29;;;;;;;31.58;16.17;;;2.20;1.00;;;;;;5074971;28;20163;-77
2022/12/11 14:36:56;;;;;;;35.75;17.13;;;2.20;1.00;;;;;;5063499;28;20246;-76
2022/12/11 14:39:38;;;;;;;36.88;17.10;;;2.30;1.00;;;;;;5074787;28;20176;-78
2022/12/11 14:42:14;;;;;;;34.88;17.25;;;2.30;1.00;;;;;;5074093;28;20177;-77
2022/12/11 14:48:42;;;;;;;32.78;16.98;;;2.30;1.00;;;;;;5074830;28;20205;-76
2022/12/11 14:51:15;;;;;;;33.97;17.77;;;2.30;1.00;;;;;;5067621;28;20252;-75
2022/12/11 14:53:45;;;;;;;41.15;18.02;;;2.30;1.00;;;;;;5074193;28;20175;-76
2022/12/11 14:56:18;;;;;;;35.22;17.45;;;2.20;1.00;;;;;;5063422;28;20570;-75
2022/12/11 14:59:07;;;;;;;44.00;19.02;;;2.10;1.00;;;;;;5054289;28;20583;-76
2022/12/11 15:02:02;;;;;;;38.85;19.13;;;2.10;1.00;;;;;;5054878;28;20160;-75
2022/12/11 15:04:36;;;;;;;37.83;17.65;;;2.10;1.00;;;;;;5065301;28;20187;-75
2022/12/11 15:07:19;;;;;;;36.13;19.48;;;2.10;1.00;;;;;;5070121;28;20523;-75
2022/12/11 15:09:50;;;;;;;42.28;20.30;;;2.10;1.00;;;;;;5068779;28;20186;-75
2022/12/11 15:12:18;;;;;;;40.85;20.30;;;2.10;1.00;;;;;;5074514;28;20209;-75
2022/12/11 15:15:14;;;;;;;38.85;20.10;;;2.00;1.00;;;;;;5073968;28;20190;-76
2022/12/11 15:17:39;;;;;;;37.83;19.55;;;2.00;1.00;;;;;;5065165;28;20175;-76
2022/12/11 15:20:08;;;;;;;35.80;19.27;;;2.00;1.00;;;;;;5069666;28;20229;-77
2022/12/11 15:22:37;;;;;;;36.78;18.52;;;1.90;1.00;;;;;;5063719;28;20417;-77
2022/12/11 15:25:25;;;;;;;40.35;20.80;;;1.90;1.00;;;;;;5070944;28;20167;-77